createdAt,value
2023-06-12T00:01:26.617Z,4.05
2023-06-12T00:03:57.187Z,4.20
2023-06-12T00:06:25.014Z,3.70
2023-06-12T00:08:51.959Z,4.20
2023-06-12T00:11:18.938Z,4.63
2023-06-12T00:13:48.297Z,4.50
2023-06-12T00:16:17.017Z,4.13
2023-06-12T00:18:44.459Z,3.90
2023-06-12T00:21:12.975Z,3.83
2023-06-12T00:23:41.667Z,4.63
2023-06-12T00:26:10.158Z,4.78
2023-06-12T00:28:39.047Z,3.88
2023-06-12T00:31:06.079Z,3.80
2023-06-12T00:33:33.277Z,4.53
2023-06-12T00:36:00.298Z,4.03
2023-06-12T00:38:27.291Z,4.38
2023-06-12T00:40:54.269Z,4.40
2023-06-12T00:43:22.404Z,4.45
2023-06-12T00:45:49.494Z,4.10
2023-06-12T00:48:17.986Z,4.57
2023-06-12T00:50:46.487Z,4.65
2023-06-12T00:53:13.595Z,3.90
2023-06-12T00:55:40.696Z,4.45
2023-06-12T00:58:07.706Z,4.30
2023-06-12T01:00:34.736Z,4.30
2023-06-12T01:03:06.647Z,4.35
2023-06-12T01:05:38.490Z,4.05
2023-06-12T01:08:18.564Z,4.45
2023-06-12T01:10:53.660Z,4.65
2023-06-12T01:13:21.960Z,4.70
2023-06-12T01:15:50.087Z,4.53
2023-06-12T01:18:18.393Z,4.70
2023-06-12T01:20:45.694Z,5.05
2023-06-12T01:23:34.046Z,4.93
2023-06-12T01:26:20.012Z,4.65
2023-06-12T01:29:22.554Z,4.78
2023-06-12T01:32:06.877Z,4.75
2023-06-12T01:34:58.540Z,4.75
2023-06-12T01:38:10.921Z,5.10
2023-06-12T01:40:40.337Z,4.50
2023-06-12T01:43:07.829Z,5.35
2023-06-12T01:45:39.114Z,5.15
2023-06-12T01:48:06.885Z,5.13
2023-06-12T01:50:35.016Z,5.20
2023-06-12T01:53:03.788Z,4.10
2023-06-12T01:55:30.803Z,4.97
2023-06-12T01:57:58.602Z,5.30
2023-06-12T02:00:45.780Z,5.32
2023-06-12T02:03:12.782Z,4.40
2023-06-12T02:05:39.814Z,5.30
2023-06-12T02:08:08.699Z,5.30
2023-06-12T02:10:35.707Z,4.30
2023-06-12T02:13:03.712Z,5.22
2023-06-12T02:15:30.790Z,4.85
2023-06-12T02:17:57.829Z,5.18
2023-06-12T02:20:24.875Z,4.43
2023-06-12T02:22:51.848Z,5.10
2023-06-12T02:25:18.869Z,4.57
2023-06-12T02:27:45.954Z,5.28
2023-06-12T02:30:13.731Z,4.68
2023-06-12T02:32:41.066Z,5.28
2023-06-12T02:35:10.180Z,5.65
2023-06-12T02:37:38.040Z,5.18
2023-06-12T02:40:06.503Z,5.60
2023-06-12T02:42:34.193Z,5.68
2023-06-12T02:45:01.225Z,5.18
2023-06-12T02:47:28.826Z,5.07
2023-06-12T02:49:56.434Z,6.15
2023-06-12T02:52:27.740Z,5.43
2023-06-12T02:54:54.885Z,4.65
2023-06-12T02:57:21.812Z,5.75
2023-06-12T02:59:48.928Z,6.30
2023-06-12T03:02:26.336Z,5.40
2023-06-12T03:04:54.199Z,5.07
2023-06-12T03:07:24.453Z,5.43
2023-06-12T03:09:51.508Z,5.47
2023-06-12T03:12:18.437Z,5.15
2023-06-12T03:14:45.614Z,5.43
2023-06-12T03:17:12.983Z,5.63
2023-06-12T03:19:40.154Z,5.45
2023-06-12T03:22:07.550Z,5.15
2023-06-12T03:24:34.875Z,4.85
2023-06-12T03:27:01.875Z,5.68
2023-06-12T03:29:30.851Z,5.05
2023-06-12T03:31:58.204Z,5.00
2023-06-12T03:34:29.589Z,4.97
2023-06-12T03:36:56.772Z,5.47
2023-06-12T03:39:27.098Z,5.90
2023-06-12T03:41:57.956Z,4.97
2023-06-12T03:44:36.437Z,6.00
2023-06-12T03:47:04.529Z,5.60
2023-06-12T03:49:31.654Z,5.70
2023-06-12T03:51:58.703Z,5.65
2023-06-12T03:54:25.738Z,5.50
2023-06-12T03:56:52.656Z,5.80
2023-06-12T03:59:20.115Z,5.78
2023-06-12T04:01:49.530Z,5.53
2023-06-12T04:04:16.972Z,5.72
2023-06-12T04:06:45.030Z,5.93
2023-06-12T04:09:16.990Z,5.88
2023-06-12T04:11:45.034Z,5.72
2023-06-12T04:14:12.136Z,5.55
2023-06-12T04:16:39.497Z,5.47
2023-06-12T04:19:06.509Z,5.15
2023-06-12T04:21:37.203Z,5.55
2023-06-12T04:24:06.860Z,5.47
2023-06-12T04:26:35.792Z,6.20
2023-06-12T04:29:04.561Z,4.95
2023-06-12T04:31:32.482Z,4.65
2023-06-12T04:34:00.113Z,4.90
2023-06-12T04:36:28.490Z,5.28
2023-06-12T04:38:58.064Z,4.88
2023-06-12T04:41:26.519Z,5.47
2023-06-12T04:44:00.517Z,5.25
2023-06-12T04:46:31.322Z,4.55
2023-06-12T04:48:58.682Z,4.18
2023-06-12T04:51:26.634Z,4.72
2023-06-12T04:53:56.821Z,4.40
2023-06-12T04:56:24.872Z,5.53
2023-06-12T04:58:52.565Z,4.85
2023-06-12T05:01:22.971Z,4.78
2023-06-12T05:03:50.706Z,4.45
2023-06-12T05:06:18.291Z,4.50
2023-06-12T05:08:47.491Z,4.15
2023-06-12T05:11:15.011Z,4.72
2023-06-12T05:13:42.082Z,4.72
2023-06-12T05:16:10.004Z,4.45
2023-06-12T05:18:37.021Z,3.50
2023-06-12T05:21:05.156Z,4.00
2023-06-12T05:23:32.481Z,4.45
2023-06-12T05:25:59.494Z,4.40
2023-06-12T05:28:26.834Z,4.70
2023-06-12T05:30:53.968Z,4.10
2023-06-12T05:33:21.835Z,4.32
2023-06-12T05:35:50.494Z,4.05
2023-06-12T05:38:17.867Z,3.78
2023-06-12T05:40:45.266Z,3.80
2023-06-12T05:43:13.479Z,4.35
2023-06-12T05:45:41.381Z,3.92
2023-06-12T05:48:09.282Z,3.70
2023-06-12T05:50:38.838Z,4.05
2023-06-12T05:53:09.412Z,4.88
2023-06-12T05:55:36.951Z,6.18
2023-06-12T05:58:06.667Z,6.38
2023-06-12T06:00:34.521Z,6.15
2023-06-12T06:03:05.536Z,5.63
2023-06-12T06:05:34.219Z,5.75
2023-06-12T06:08:10.051Z,5.72
2023-06-12T06:10:43.573Z,5.43
2023-06-12T06:13:10.678Z,6.47
2023-06-12T06:15:37.930Z,5.97
2023-06-12T06:18:08.059Z,5.88
2023-06-12T06:20:36.330Z,6.43
2023-06-12T06:23:03.488Z,5.95
2023-06-12T06:25:32.730Z,5.70
2023-06-12T06:27:59.834Z,5.43
2023-06-12T06:30:27.112Z,6.15
2023-06-12T06:32:54.160Z,6.10
2023-06-12T06:35:24.853Z,7.07
2023-06-12T06:37:51.962Z,6.57
2023-06-12T06:40:19.266Z,6.50
2023-06-12T06:42:46.257Z,6.88
2023-06-12T06:45:13.961Z,6.07
2023-06-12T06:47:43.461Z,6.35
2023-06-12T06:50:11.484Z,5.95
2023-06-12T06:52:39.754Z,6.18
2023-06-12T06:55:07.930Z,6.60
2023-06-12T06:57:38.189Z,5.88
2023-06-12T07:00:07.297Z,5.47
2023-06-12T07:02:35.884Z,5.72
2023-06-12T07:05:07.315Z,5.80
2023-06-12T07:07:39.718Z,6.22
2023-06-12T07:10:12.360Z,5.28
2023-06-12T07:12:39.836Z,4.90
2023-06-12T07:15:08.813Z,5.43
2023-06-12T07:17:38.726Z,5.13
2023-06-12T07:20:07.472Z,5.05
2023-06-12T07:22:35.355Z,5.28
2023-06-12T07:25:02.576Z,5.55
2023-06-12T07:27:29.704Z,4.82
2023-06-12T07:29:57.210Z,4.88
2023-06-12T07:32:25.652Z,5.43
2023-06-12T07:34:56.002Z,4.13
2023-06-12T07:37:24.471Z,4.57
2023-06-12T07:39:53.747Z,5.53
2023-06-12T07:42:21.693Z,4.13
2023-06-12T07:44:48.936Z,5.03
2023-06-12T07:47:16.292Z,4.55
2023-06-12T07:49:44.336Z,5.35
2023-06-12T07:52:11.485Z,5.40
2023-06-12T07:54:39.354Z,4.45
2023-06-12T07:57:07.822Z,4.70
2023-06-12T07:59:36.464Z,5.00
2023-06-12T08:02:05.451Z,4.55
2023-06-12T08:04:34.621Z,4.45
2023-06-12T08:07:03.181Z,4.25
2023-06-12T08:09:32.724Z,4.28
2023-06-12T08:12:00.987Z,4.20
2023-06-12T08:14:29.252Z,4.07
2023-06-12T08:16:56.678Z,3.85
2023-06-12T08:19:23.966Z,4.50
2023-06-12T08:21:51.656Z,4.10
2023-06-12T08:24:19.517Z,4.63
2023-06-12T08:26:47.253Z,4.35
2023-06-12T08:29:15.333Z,4.18
2023-06-12T08:31:43.295Z,4.57
2023-06-12T08:34:11.672Z,3.90
2023-06-12T08:36:39.478Z,4.57
2023-06-12T08:39:08.253Z,4.40
2023-06-12T08:41:42.594Z,4.00
2023-06-12T08:44:11.108Z,4.30
2023-06-12T08:46:43.337Z,3.78
2023-06-12T08:49:16.411Z,4.28
2023-06-12T08:51:44.628Z,4.53
2023-06-12T08:54:12.603Z,4.57
2023-06-12T08:56:43.748Z,4.70
2023-06-12T08:59:14.575Z,4.47
2023-06-12T09:01:43.911Z,4.22
2023-06-12T09:04:39.048Z,4.35
2023-06-12T09:07:06.643Z,4.45
2023-06-12T09:09:42.077Z,4.72
2023-06-12T09:12:14.796Z,4.38
2023-06-12T09:14:51.558Z,5.38
2023-06-12T09:17:19.383Z,5.13
2023-06-12T09:19:50.038Z,4.80
2023-06-12T09:22:17.537Z,4.65
2023-06-12T09:24:45.140Z,4.65
2023-06-12T09:27:13.708Z,5.25
2023-06-12T09:29:42.367Z,4.72
2023-06-12T09:32:16.479Z,4.63
2023-06-12T09:34:48.109Z,3.90
2023-06-12T09:37:16.404Z,4.20
2023-06-12T09:39:45.550Z,3.65
2023-06-12T09:42:14.858Z,3.65
2023-06-12T09:44:44.058Z,3.30
2023-06-12T09:47:12.448Z,3.95
2023-06-12T09:49:39.885Z,3.20
2023-06-12T09:52:07.540Z,4.53
2023-06-12T09:54:35.393Z,3.42
2023-06-12T09:57:07.661Z,4.03
2023-06-12T09:59:38.018Z,3.88
2023-06-12T10:02:16.328Z,3.60
2023-06-12T10:04:51.603Z,3.83
2023-06-12T10:07:33.598Z,3.42
2023-06-12T10:10:05.122Z,3.70
2023-06-12T10:12:33.562Z,3.40
2023-06-12T10:15:04.639Z,4.07
2023-06-12T10:17:33.431Z,3.85
2023-06-12T10:20:03.981Z,3.63
2023-06-12T10:22:31.538Z,4.07
2023-06-12T10:24:59.620Z,3.60
2023-06-12T10:27:27.267Z,3.40
2023-06-12T10:30:01.928Z,3.60
2023-06-12T10:32:34.312Z,3.47
2023-06-12T10:35:04.864Z,3.42
2023-06-12T10:37:50.783Z,3.28
2023-06-12T10:40:29.750Z,3.50
2023-06-12T10:43:06.630Z,3.00
2023-06-12T10:45:37.652Z,3.35
2023-06-12T10:48:05.469Z,2.75
2023-06-12T10:50:39.273Z,3.70
2023-06-12T10:53:15.557Z,3.30
2023-06-12T10:55:46.200Z,3.22
2023-06-12T10:58:20.945Z,3.72
2023-06-12T11:00:51.367Z,3.53
2023-06-12T11:03:36.023Z,3.53
2023-06-12T11:06:18.454Z,4.55
2023-06-12T11:08:47.622Z,3.42
2023-06-12T11:11:16.691Z,3.60
2023-06-12T11:13:47.968Z,4.57
2023-06-12T11:16:20.661Z,4.32
2023-06-12T11:18:47.915Z,3.65
2023-06-12T11:21:15.311Z,3.60
2023-06-12T11:23:42.908Z,3.40
2023-06-12T11:26:10.628Z,4.38
2023-06-12T11:28:38.259Z,4.03
2023-06-12T11:31:11.895Z,3.80
2023-06-12T11:33:41.101Z,3.10
2023-06-12T11:36:09.335Z,3.70
2023-06-12T11:41:11.970Z,3.30
2023-06-12T11:43:39.591Z,3.70
2023-06-12T11:46:07.728Z,3.20
2023-06-12T11:51:06.155Z,3.38
2023-06-12T11:53:34.877Z,3.47
2023-06-12T11:58:38.402Z,3.80
2023-06-12T12:01:16.696Z,3.70
2023-06-12T12:03:48.233Z,3.72
2023-06-12T12:06:17.085Z,3.58
2023-06-12T12:08:45.770Z,3.22
2023-06-12T12:11:32.232Z,3.80
2023-06-12T12:14:05.115Z,3.70
2023-06-12T12:16:44.505Z,3.60
2023-06-12T12:19:28.789Z,3.78
2023-06-12T12:21:57.912Z,4.35
2023-06-12T12:24:25.873Z,3.45
2023-06-12T12:26:55.202Z,3.88
2023-06-12T12:29:23.596Z,3.45
2023-06-12T12:31:51.608Z,3.42
2023-06-12T12:34:19.276Z,3.25
2023-06-12T12:36:48.395Z,3.25
2023-06-12T12:39:16.800Z,2.97
2023-06-12T12:41:44.218Z,3.00
2023-06-12T12:44:13.002Z,3.45
2023-06-12T12:46:40.267Z,4.05
2023-06-12T12:49:09.062Z,3.50
2023-06-12T12:51:37.422Z,3.55
2023-06-12T12:54:04.866Z,3.13
2023-06-12T12:56:32.109Z,3.25
2023-06-12T12:58:59.509Z,3.00
2023-06-12T13:01:26.762Z,3.28
2023-06-12T13:03:57.587Z,3.40
2023-06-12T13:06:25.168Z,2.95
2023-06-12T13:08:52.532Z,3.35
2023-06-12T13:11:20.389Z,3.35
2023-06-12T13:13:47.695Z,3.20
2023-06-12T13:16:16.059Z,3.30
2023-06-12T13:18:45.649Z,3.17
2023-06-12T13:21:13.819Z,3.72
2023-06-12T13:23:41.157Z,3.25
2023-06-12T13:26:09.764Z,3.58
2023-06-12T13:28:37.343Z,3.50
2023-06-12T13:31:04.533Z,3.10
2023-06-12T13:33:32.072Z,3.03
2023-06-12T13:35:59.471Z,3.30
2023-06-12T13:38:26.627Z,3.38
2023-06-12T13:40:54.238Z,3.70
2023-06-12T13:43:21.558Z,3.33
2023-06-12T13:45:49.757Z,3.10
2023-06-12T13:48:17.649Z,2.63
2023-06-12T13:50:45.048Z,3.10
2023-06-12T13:53:12.895Z,3.10
2023-06-12T13:55:40.507Z,2.58
2023-06-12T13:58:08.706Z,3.25
2023-06-12T14:00:37.152Z,2.95
2023-06-12T14:03:04.772Z,3.10
2023-06-12T14:05:32.219Z,3.58
2023-06-12T14:07:59.729Z,3.72
2023-06-12T14:10:27.117Z,3.35
2023-06-12T14:12:55.228Z,3.08
2023-06-12T14:15:24.216Z,3.15
2023-06-12T14:17:52.385Z,3.35
2023-06-12T14:20:20.227Z,3.10
2023-06-12T14:22:47.705Z,3.38
2023-06-12T14:25:15.407Z,3.20
2023-06-12T14:27:43.054Z,3.60
2023-06-12T14:30:12.047Z,3.42
2023-06-12T14:32:39.242Z,3.22
2023-06-12T14:35:07.080Z,3.40
2023-06-12T14:37:34.479Z,3.30
2023-06-12T14:40:01.967Z,2.88
2023-06-12T14:42:29.330Z,3.13
2023-06-12T14:44:56.872Z,3.20
2023-06-12T14:47:24.276Z,3.65
2023-06-12T14:49:51.671Z,3.70
2023-06-12T14:52:32.683Z,2.97
2023-06-12T14:55:02.201Z,3.08
2023-06-12T14:57:29.449Z,3.15
2023-06-12T14:59:56.797Z,3.40
2023-06-12T15:02:24.214Z,2.75
2023-06-12T15:04:52.010Z,3.22
2023-06-12T15:07:19.251Z,3.67
2023-06-12T15:09:47.445Z,3.25
2023-06-12T15:12:14.982Z,3.75
2023-06-12T15:14:42.143Z,3.92
2023-06-12T15:17:09.424Z,3.35
2023-06-12T15:19:36.773Z,4.22
2023-06-12T15:22:04.443Z,4.18
2023-06-12T15:24:31.764Z,4.18
2023-06-12T15:26:59.304Z,3.90
2023-06-12T15:29:26.469Z,4.00
2023-06-12T15:31:53.680Z,4.22
2023-06-12T15:34:21.101Z,4.10
2023-06-12T15:36:48.468Z,3.85
2023-06-12T15:39:15.731Z,4.75
2023-06-12T15:41:43.111Z,4.40
2023-06-12T15:44:10.584Z,4.05
2023-06-12T15:46:38.048Z,4.43
2023-06-12T15:49:06.476Z,3.65
2023-06-12T15:51:33.927Z,4.30
2023-06-12T15:54:01.269Z,4.32
2023-06-12T15:56:29.053Z,3.90
2023-06-12T15:58:57.737Z,4.03
2023-06-12T16:01:25.291Z,4.35
2023-06-12T16:03:56.688Z,4.60
2023-06-12T16:06:24.156Z,4.80
2023-06-12T16:08:51.429Z,3.97
2023-06-12T16:11:18.696Z,4.47
2023-06-12T16:13:46.090Z,4.43
2023-06-12T16:16:13.321Z,3.50
2023-06-12T16:18:40.713Z,4.55
2023-06-12T16:21:10.456Z,3.75
2023-06-12T16:23:38.077Z,4.70
2023-06-12T16:26:06.240Z,4.50
2023-06-12T16:28:34.345Z,4.30
2023-06-12T16:31:02.326Z,4.50
2023-06-12T16:33:29.836Z,4.28
2023-06-12T16:35:57.170Z,4.18
2023-06-12T16:38:24.570Z,4.20
2023-06-12T16:40:51.782Z,4.88
2023-06-12T16:43:19.204Z,5.55
2023-06-12T16:45:46.528Z,4.18
2023-06-12T16:48:13.735Z,3.88
2023-06-12T16:50:41.217Z,4.22
2023-06-12T16:53:08.733Z,4.50
2023-06-12T16:55:36.039Z,4.38
2023-06-12T16:58:06.038Z,4.28
2023-06-12T17:00:33.681Z,4.13
2023-06-12T17:03:01.161Z,4.45
2023-06-12T17:05:28.904Z,4.22
2023-06-12T17:07:56.413Z,4.40
2023-06-12T17:10:23.705Z,4.60
2023-06-12T17:12:51.332Z,4.38
2023-06-12T17:15:18.597Z,4.40
2023-06-12T17:17:46.193Z,4.70
2023-06-12T17:20:13.972Z,4.38
2023-06-12T17:22:41.277Z,4.50
2023-06-12T17:25:09.140Z,4.32
2023-06-12T17:27:36.490Z,4.20
2023-06-12T17:30:04.317Z,4.40
2023-06-12T17:32:31.612Z,3.40
2023-06-12T17:34:59.041Z,3.70
2023-06-12T17:37:26.483Z,3.97
2023-06-12T17:39:53.843Z,4.30
2023-06-12T17:42:21.289Z,4.85
2023-06-12T17:44:48.428Z,4.20
2023-06-12T17:47:15.895Z,4.43
2023-06-12T17:49:43.408Z,4.40
2023-06-12T17:52:10.612Z,4.25
2023-06-12T17:54:37.840Z,4.03
2023-06-12T17:57:05.521Z,4.40
2023-06-12T17:59:32.966Z,4.43
2023-06-12T18:02:00.208Z,4.45
2023-06-12T18:04:29.749Z,5.13
2023-06-12T18:06:57.130Z,4.43
2023-06-12T18:09:24.466Z,4.10
2023-06-12T18:11:54.596Z,4.60
2023-06-12T18:14:23.657Z,4.63
2023-06-12T18:16:51.159Z,4.90
2023-06-12T18:19:18.377Z,4.45
2023-06-12T18:21:45.719Z,4.18
2023-06-12T18:24:13.153Z,4.75
2023-06-12T18:26:40.825Z,4.60
2023-06-12T18:29:13.222Z,5.07
2023-06-12T18:31:41.080Z,4.22
2023-06-12T18:34:10.092Z,5.13
2023-06-12T18:36:37.911Z,4.78
2023-06-12T18:39:05.691Z,4.75
2023-06-12T18:41:33.657Z,4.18
2023-06-12T18:44:01.506Z,4.80
2023-06-12T18:46:28.905Z,4.25
2023-06-12T18:48:56.114Z,4.78
2023-06-12T18:51:23.825Z,4.00
2023-06-12T18:53:51.612Z,4.03
2023-06-12T18:56:19.876Z,4.07
2023-06-12T18:58:47.182Z,4.20
2023-06-12T19:01:14.664Z,3.97
2023-06-12T19:03:42.110Z,4.70
2023-06-12T19:06:09.863Z,4.25
2023-06-12T19:08:37.409Z,3.47
2023-06-12T19:11:04.788Z,4.47
2023-06-12T19:13:32.297Z,5.30
2023-06-12T19:16:00.325Z,4.22
2023-06-12T19:18:27.390Z,3.67
2023-06-12T19:20:56.129Z,3.58
2023-06-12T19:23:24.173Z,4.68
2023-06-12T19:25:51.253Z,4.13
2023-06-12T19:28:18.376Z,3.47
2023-06-12T19:30:46.356Z,3.85
2023-06-12T19:33:13.903Z,3.25
2023-06-12T19:35:40.903Z,3.92
2023-06-12T19:38:08.648Z,3.33
2023-06-12T19:40:35.839Z,3.33
2023-06-12T19:43:02.848Z,3.95
2023-06-12T19:45:31.187Z,3.67
2023-06-12T19:47:58.965Z,4.13
2023-06-12T19:50:26.500Z,3.67
2023-06-12T19:52:53.918Z,3.92
2023-06-12T19:55:21.680Z,3.97
2023-06-12T19:57:51.839Z,3.53
2023-06-12T20:00:19.711Z,4.72
2023-06-12T20:02:47.234Z,3.75
2023-06-12T20:05:15.033Z,3.90
2023-06-12T20:07:42.773Z,4.28
2023-06-12T20:10:11.552Z,3.47
2023-06-12T20:12:39.343Z,3.45
2023-06-12T20:15:07.245Z,3.45
2023-06-12T20:17:34.315Z,3.42
2023-06-12T20:20:01.449Z,4.13
2023-06-12T20:22:28.417Z,4.13
2023-06-12T20:24:55.507Z,3.40
2023-06-12T20:27:23.416Z,3.72
2023-06-12T20:29:50.436Z,4.15
2023-06-12T20:32:17.547Z,3.97
2023-06-12T20:34:44.643Z,3.60
2023-06-12T20:37:11.572Z,3.63
2023-06-12T20:39:38.530Z,3.45
2023-06-12T20:42:07.734Z,4.05
2023-06-12T20:44:34.693Z,4.32
2023-06-12T20:47:01.715Z,3.88
2023-06-12T20:49:28.729Z,3.75
2023-06-12T20:51:55.676Z,4.00
2023-06-12T20:54:22.653Z,3.38
2023-06-12T20:56:52.654Z,3.60
2023-06-12T20:59:19.605Z,3.30
2023-06-12T21:01:46.792Z,4.13
2023-06-12T21:04:13.892Z,4.53
2023-06-12T21:06:40.967Z,3.55
2023-06-12T21:09:08.177Z,3.95
2023-06-12T21:11:38.125Z,3.90
2023-06-12T21:14:10.579Z,4.13
2023-06-12T21:16:38.720Z,4.75
2023-06-12T21:19:06.752Z,4.35
2023-06-12T21:21:34.641Z,4.25
2023-06-12T21:24:01.904Z,4.13
2023-06-12T21:26:32.012Z,4.25
2023-06-12T21:28:59.713Z,3.83
2023-06-12T21:31:30.205Z,4.05
2023-06-12T21:33:58.735Z,4.18
2023-06-12T21:36:26.788Z,3.58
2023-06-12T21:38:53.832Z,4.53
2023-06-12T21:41:21.124Z,4.15
2023-06-12T21:43:48.155Z,4.55
2023-06-12T21:46:15.341Z,3.72
2023-06-12T21:48:42.647Z,3.92
2023-06-12T21:51:09.833Z,3.97
2023-06-12T21:53:37.018Z,4.03
2023-06-12T21:56:04.727Z,4.07
2023-06-12T21:58:32.025Z,3.85
2023-06-12T22:01:00.596Z,4.53
2023-06-12T22:03:28.908Z,4.05
2023-06-12T22:05:58.053Z,4.55
2023-06-12T22:08:27.103Z,4.10
2023-06-12T22:10:54.444Z,4.80
2023-06-12T22:13:21.577Z,4.90
2023-06-12T22:15:49.336Z,4.13
2023-06-12T22:18:17.133Z,4.45
2023-06-12T22:20:45.236Z,4.30
2023-06-12T22:23:13.794Z,4.32
2023-06-12T22:25:41.989Z,4.63
2023-06-12T22:28:09.566Z,3.97
2023-06-12T22:30:51.690Z,4.75
2023-06-12T22:33:23.855Z,4.55
2023-06-12T22:35:50.985Z,4.70
2023-06-12T22:38:18.167Z,5.18
2023-06-12T22:40:45.843Z,4.47
2023-06-12T22:43:16.055Z,4.70
2023-06-12T22:45:43.951Z,4.53
2023-06-12T22:48:11.111Z,4.95
2023-06-12T22:50:38.830Z,4.90
2023-06-12T22:53:12.834Z,4.38
2023-06-12T22:55:42.336Z,4.63
2023-06-12T22:58:09.645Z,4.97
2023-06-12T23:00:36.632Z,4.90
2023-06-12T23:03:03.660Z,5.22
2023-06-12T23:05:32.608Z,4.63
2023-06-12T23:07:59.823Z,4.10
2023-06-12T23:10:26.772Z,5.00
2023-06-12T23:12:53.716Z,4.30
2023-06-12T23:15:20.772Z,3.80
2023-06-12T23:17:48.943Z,4.78
2023-06-12T23:20:17.609Z,5.18
2023-06-12T23:22:52.872Z,4.90
2023-06-12T23:25:20.539Z,4.10
2023-06-12T23:27:57.283Z,4.45
2023-06-12T23:30:25.815Z,4.63
2023-06-12T23:32:54.591Z,4.82
2023-06-12T23:35:23.270Z,4.30
2023-06-12T23:37:50.261Z,4.47
2023-06-12T23:40:17.442Z,4.35
2023-06-12T23:42:44.654Z,4.43
2023-06-12T23:45:11.827Z,3.97
2023-06-12T23:47:38.861Z,4.22
2023-06-12T23:50:09.788Z,4.25
2023-06-12T23:52:39.477Z,4.88
2023-06-12T23:55:07.316Z,4.75
2023-06-12T23:57:34.341Z,4.53
